Time;durP1;ratioP1;P1;durP2;ratioP2;P2;SDS_P1;SDS_P2;PMS_P1;PMS_P2;Temp;Humidity;BMP_temperature;BMP_pressure;BME280_temperature;BME280_humidity;BME280_pressure;Samples;Min_cycle;Max_cycle;Signal;HPM_P1;HPM_P2
2023/01/14 05:02:00;;;;;;;23.95;3.55;;;6.20;99.90;;;;;;6041153;23;20069;-80
2023/01/14 05:04:26;;;;;;;13.52;2.35;;;6.10;99.90;;;;;;6046645;23;20029;-81
2023/01/14 05:06:53;;;;;;;19.17;3.70;;;6.10;99.90;;;;;;6045949;23;20049;-79
2023/01/14 05:09:19;;;;;;;24.58;3.08;;;6.10;99.90;;;;;;6046092;23;20007;-80
2023/01/14 05:11:45;;;;;;;28.05;3.92;;;6.10;99.90;;;;;;6053249;23;20473;-78
2023/01/14 05:14:10;;;;;;;26.27;2.97;;;6.10;99.90;;;;;;6017576;23;20071;-77
2023/01/14 05:16:36;;;;;;;23.58;3.53;;;6.10;99.90;;;;;;6017216;23;20074;-84
2023/01/14 05:19:02;;;;;;;20.35;3.25;;;6.10;99.90;;;;;;6043068;23;20391;-80
2023/01/14 05:21:27;;;;;;;23.77;4.32;;;6.00;99.90;;;;;;6017650;23;20047;-78
2023/01/14 05:23:53;;;;;;;18.80;3.08;;;6.10;99.90;;;;;;6017880;23;20053;-80
2023/01/14 05:26:19;;;;;;;35.20;5.47;;;6.00;99.90;;;;;;6017952;23;20026;-78
2023/01/14 05:28:44;;;;;;;28.17;4.30;;;6.00;99.90;;;;;;6018632;23;20363;-81
2023/01/14 05:31:10;;;;;;;23.15;3.72;;;6.00;99.90;;;;;;6018556;23;20015;-79
2023/01/14 05:33:36;;;;;;;23.58;3.40;;;6.00;99.90;;;;;;6017935;23;20051;-78
2023/01/14 05:36:01;;;;;;;33.03;4.75;;;6.10;99.90;;;;;;6018046;23;20465;-80
2023/01/14 05:38:27;;;;;;;17.80;3.00;;;6.10;99.90;;;;;;6016986;23;20019;-79
2023/01/14 05:40:53;;;;;;;22.13;3.25;;;6.10;99.90;;;;;;5993717;23;20026;-80
2023/01/14 05:46:06;;;;;;;23.90;3.70;;;6.10;99.90;;;;;;6041037;23;20019;-82
2023/01/14 05:48:31;;;;;;;30.08;4.55;;;6.10;99.90;;;;;;6017417;23;20247;-79
2023/01/14 05:50:58;;;;;;;33.75;4.88;;;6.00;99.90;;;;;;6042449;23;20018;-78
2023/01/14 05:53:26;;;;;;;30.10;5.22;;;6.10;99.90;;;;;;6017320;23;20011;-78
2023/01/14 05:55:53;;;;;;;25.60;5.03;;;6.10;99.90;;;;;;5993690;23;20445;-79
2023/01/14 05:58:19;;;;;;;31.75;6.78;;;6.00;99.90;;;;;;6017180;23;20023;-78
2023/01/14 06:06:28;;;;;;;31.83;4.60;;;6.00;99.90;;;;;;6041703;23;20030;-78
2023/01/14 06:08:55;;;;;;;33.33;5.43;;;6.00;99.90;;;;;;6017641;23;20018;-80
2023/01/14 06:11:23;;;;;;;28.80;4.32;;;6.00;99.90;;;;;;6042503;23;20016;-77
2023/01/14 06:13:49;;;;;;;37.58;6.20;;;6.00;99.90;;;;;;6042381;23;20461;-82
2023/01/14 06:16:16;;;;;;;22.13;4.68;;;6.00;99.90;;;;;;6017951;23;20373;-80
2023/01/14 06:18:42;;;;;;;30.25;4.68;;;6.00;99.90;;;;;;6018048;23;20019;-83
2023/01/14 06:21:11;;;;;;;29.17;5.72;;;6.00;99.90;;;;;;6017548;23;20054;-78
2023/01/14 06:23:36;;;;;;;24.77;5.40;;;6.00;99.90;;;;;;6017521;23;20023;-82
2023/01/14 06:26:02;;;;;;;25.00;5.00;;;6.00;99.90;;;;;;6017387;23;20405;-77
2023/01/14 06:28:28;;;;;;;29.05;4.80;;;5.90;99.90;;;;;;5993793;23;20437;-77
2023/01/14 06:30:54;;;;;;;26.98;6.38;;;5.90;99.90;;;;;;6017039;23;20018;-84
2023/01/14 06:33:20;;;;;;;28.63;5.45;;;5.90;99.90;;;;;;6017591;23;20086;-79
2023/01/14 06:35:46;;;;;;;28.77;5.65;;;5.90;99.90;;;;;;5994840;23;20015;-81
2023/01/14 06:38:12;;;;;;;38.15;6.88;;;5.90;99.90;;;;;;6043187;23;20026;-80
2023/01/14 06:40:39;;;;;;;25.50;5.68;;;5.90;99.90;;;;;;5994396;23;20023;-81
2023/01/14 06:43:06;;;;;;;38.83;7.60;;;5.90;99.90;;;;;;6043118;23;20027;-83
2023/01/14 06:45:32;;;;;;;37.45;7.82;;;5.90;99.90;;;;;;6043405;23;20019;-80
2023/01/14 06:47:58;;;;;;;33.63;6.70;;;5.90;99.90;;;;;;6017941;23;20026;-79
2023/01/14 06:50:24;;;;;;;29.35;6.80;;;5.90;99.90;;;;;;6017043;23;20083;-79
2023/01/14 06:52:52;;;;;;;28.90;6.18;;;5.90;99.90;;;;;;6042988;23;20091;-78
2023/01/14 06:55:19;;;;;;;33.17;6.60;;;5.90;99.90;;;;;;6017099;23;20022;-79
2023/01/14 06:57:45;;;;;;;35.92;6.82;;;5.90;99.90;;;;;;6042892;23;20011;-81
2023/01/14 07:00:11;;;;;;;35.22;6.68;;;5.90;99.90;;;;;;6017781;23;20027;-79
2023/01/14 07:02:38;;;;;;;45.22;6.32;;;5.90;99.90;;;;;;6016928;23;20030;-78
2023/01/14 07:05:04;;;;;;;33.58;5.78;;;5.90;99.90;;;;;;6016675;23;20090;-80
2023/01/14 07:07:29;;;;;;;35.30;7.00;;;5.90;99.90;;;;;;5993416;23;20019;-79
2023/01/14 07:09:55;;;;;;;40.22;6.57;;;5.90;99.90;;;;;;6017144;23;20026;-79
2023/01/14 07:12:22;;;;;;;32.67;6.47;;;5.90;99.90;;;;;;6016962;23;20012;-77
2023/01/14 07:14:48;;;;;;;36.85;5.60;;;5.90;99.90;;;;;;6016468;23;20023;-79
2023/01/14 07:17:13;;;;;;;37.03;6.57;;;5.90;99.90;;;;;;6016620;23;20015;-80
2023/01/14 07:19:39;;;;;;;29.38;5.57;;;5.90;99.90;;;;;;6017084;23;20403;-81
2023/01/14 07:22:05;;;;;;;41.78;6.15;;;5.90;99.90;;;;;;6017159;23;20098;-80
2023/01/14 07:24:31;;;;;;;36.05;5.80;;;5.90;99.90;;;;;;6041935;23;20449;-81
2023/01/14 07:26:56;;;;;;;37.10;5.70;;;5.90;99.90;;;;;;6016889;23;20025;-78
2023/01/14 07:29:22;;;;;;;31.80;4.85;;;5.90;99.90;;;;;;6016564;23;20015;-79
2023/01/14 07:31:48;;;;;;;28.98;4.80;;;6.00;99.90;;;;;;6016672;23;20015;-79
2023/01/14 07:34:13;;;;;;;32.17;5.63;;;6.00;99.90;;;;;;6016820;23;20034;-79
2023/01/14 07:36:39;;;;;;;33.13;5.57;;;6.00;99.90;;;;;;5993184;23;20037;-83
2023/01/14 07:39:05;;;;;;;27.50;5.10;;;6.00;99.90;;;;;;5993089;23;20073;-78
2023/01/14 07:41:31;;;;;;;36.72;5.35;;;6.00;99.90;;;;;;6015881;23;20449;-83
2023/01/14 07:43:56;;;;;;;29.25;5.53;;;6.00;99.90;;;;;;6041159;23;20019;-81
2023/01/14 07:46:22;;;;;;;36.45;5.82;;;6.00;99.90;;;;;;6017365;23;20015;-80
2023/01/14 07:48:47;;;;;;;31.77;5.35;;;6.10;99.90;;;;;;6016679;23;20019;-78
2023/01/14 07:51:20;;;;;;;36.83;5.72;;;6.00;99.90;;;;;;6015995;23;20442;-82
2023/01/14 07:53:47;;;;;;;35.97;6.15;;;6.10;99.90;;;;;;5993975;23;20514;-78
2023/01/14 07:56:13;;;;;;;35.40;6.05;;;6.00;99.90;;;;;;6015978;23;20099;-80
2023/01/14 07:58:42;;;;;;;36.20;5.93;;;6.10;99.90;;;;;;6042064;23;20043;-81
2023/01/14 08:01:09;;;;;;;34.88;6.22;;;6.10;99.90;;;;;;6015261;23;20050;-86
2023/01/14 08:03:36;;;;;;;35.40;6.90;;;6.10;99.90;;;;;;6014894;23;20015;-83
2023/01/14 08:06:04;;;;;;;32.25;5.20;;;6.10;99.90;;;;;;6014096;23;20019;-80
2023/01/14 08:08:30;;;;;;;26.38;5.40;;;6.10;99.90;;;;;;6013750;23;20016;-87
2023/01/14 08:11:02;;;;;;;33.47;5.53;;;6.10;99.90;;;;;;6039301;23;20015;-85
2023/01/14 08:13:38;;;;;;;36.08;5.28;;;6.10;99.90;;;;;;6015302;23;20022;-87
2023/01/14 08:16:04;;;;;;;33.45;5.93;;;6.00;99.90;;;;;;6015529;23;20066;-83
2023/01/14 08:18:31;;;;;;;30.45;5.25;;;6.00;99.90;;;;;;6016242;23;20023;-84
2023/01/14 08:20:59;;;;;;;26.42;4.68;;;6.00;99.90;;;;;;6016915;23;20124;-88
2023/01/14 08:23:25;;;;;;;35.38;6.22;;;6.00;99.90;;;;;;6016962;23;20449;-85
2023/01/14 08:25:50;;;;;;;28.13;4.72;;;6.00;99.90;;;;;;6017928;23;20016;-86
2023/01/14 08:39:31;;;;;;;36.00;5.13;;;6.00;99.90;;;;;;6022444;23;20453;-85
2023/01/14 08:42:03;;;;;;;42.88;5.65;;;6.00;99.90;;;;;;6002408;23;20030;-86
2023/01/14 08:44:32;;;;;;;25.88;4.60;;;6.00;99.90;;;;;;5996128;23;20348;-86
2023/01/14 08:46:58;;;;;;;27.50;4.60;;;6.00;99.90;;;;;;6020037;23;20015;-88
2023/01/14 08:49:33;;;;;;;27.80;4.68;;;5.90;99.90;;;;;;5995453;23;20051;-88
2023/01/14 08:51:59;;;;;;;21.40;4.40;;;5.90;99.90;;;;;;5995768;23;20074;-88
2023/01/14 08:54:24;;;;;;;31.42;5.07;;;5.90;99.90;;;;;;5997613;23;20019;-87
2023/01/14 08:56:50;;;;;;;32.83;4.53;;;5.90;99.90;;;;;;6046260;23;20011;-88
2023/01/14 08:59:25;;;;;;;26.83;4.82;;;5.90;99.90;;;;;;5995732;23;20071;-86
2023/01/14 09:02:13;;;;;;;24.13;4.03;;;5.90;99.90;;;;;;6019292;23;20019;-87
2023/01/14 09:04:39;;;;;;;29.08;3.88;;;5.90;99.90;;;;;;6044391;23;20019;-83
2023/01/14 09:18:04;;;;;;;26.55;4.28;;;5.90;99.90;;;;;;6041194;23;20023;-83
2023/01/14 09:20:34;;;;;;;34.53;6.30;;;5.90;99.90;;;;;;6017739;23;20031;-85
2023/01/14 09:23:01;;;;;;;24.35;4.28;;;5.90;99.90;;;;;;6018014;23;20015;-83
2023/01/14 09:25:27;;;;;;;27.63;3.75;;;5.90;99.90;;;;;;6018610;23;20350;-86
2023/01/14 09:27:53;;;;;;;23.88;5.22;;;5.90;99.90;;;;;;6043809;23;20011;-86
2023/01/14 09:30:19;;;;;;;24.20;4.47;;;5.90;99.90;;;;;;6043771;23;20015;-80
2023/01/14 09:32:45;;;;;;;26.60;5.32;;;6.00;99.90;;;;;;6018404;23;20025;-81
2023/01/14 09:35:11;;;;;;;18.85;4.00;;;5.90;99.90;;;;;;6018154;23;20413;-82
2023/01/14 09:37:37;;;;;;;18.00;3.88;;;6.00;99.90;;;;;;6018389;23;20027;-83
2023/01/14 09:40:03;;;;;;;17.08;3.67;;;6.00;99.90;;;;;;6018272;23;20430;-81
2023/01/14 09:42:36;;;;;;;20.23;3.55;;;6.00;99.90;;;;;;6018596;23;20185;-83
2023/01/14 09:45:26;;;;;;;18.77;4.13;;;6.10;99.90;;;;;;6018624;23;20019;-84
2023/01/14 09:47:52;;;;;;;19.10;3.72;;;6.10;99.90;;;;;;5995272;23;20049;-83
2023/01/14 09:50:31;;;;;;;13.13;3.70;;;6.10;99.90;;;;;;6043472;23;20011;-83
2023/01/14 09:53:09;;;;;;;19.35;3.90;;;6.10;99.90;;;;;;6018363;23;20022;-83
2023/01/14 09:55:43;;;;;;;18.75;4.07;;;6.20;99.90;;;;;;6017435;23;20114;-82
2023/01/14 09:58:20;;;;;;;13.82;4.53;;;6.20;99.90;;;;;;6043183;23;20019;-82
2023/01/14 10:01:08;;;;;;;15.30;3.63;;;6.20;99.90;;;;;;6017759;23;20071;-82
2023/01/14 10:03:59;;;;;;;15.38;3.42;;;6.30;99.90;;;;;;6043834;23;20019;-83
2023/01/14 10:06:25;;;;;;;20.35;3.65;;;6.20;99.90;;;;;;6017690;23;20026;-84
2023/01/14 10:08:59;;;;;;;10.80;3.25;;;6.30;99.90;;;;;;6017808;23;20370;-82
2023/01/14 10:11:28;;;;;;;13.48;3.63;;;6.40;99.90;;;;;;6018088;23;20091;-82
2023/01/14 10:14:11;;;;;;;12.23;4.28;;;6.30;99.90;;;;;;6044253;23;20015;-82
2023/01/14 10:16:43;;;;;;;13.25;4.32;;;6.40;99.90;;;;;;6019010;23;20023;-83
2023/01/14 10:19:19;;;;;;;19.13;3.83;;;6.40;99.90;;;;;;6043908;23;20019;-82
2023/01/14 10:21:46;;;;;;;13.20;4.15;;;6.40;99.90;;;;;;6044064;23;20019;-85
2023/01/14 10:24:17;;;;;;;9.80;3.40;;;6.40;99.90;;;;;;6044288;23;20016;-83
2023/01/14 10:26:48;;;;;;;8.80;3.28;;;6.50;99.90;;;;;;6044457;23;20330;-85
2023/01/14 10:29:19;;;;;;;11.50;3.40;;;6.50;99.90;;;;;;5995274;23;20019;-83
2023/01/14 10:32:09;;;;;;;9.18;3.22;;;6.50;99.90;;;;;;6044295;23;20011;-83
2023/01/14 10:34:46;;;;;;;20.40;5.35;;;6.60;99.90;;;;;;5996563;23;20019;-84
2023/01/14 10:37:12;;;;;;;7.20;3.25;;;6.60;99.90;;;;;;6018902;23;20034;-85
2023/01/14 10:39:50;;;;;;;9.02;3.47;;;6.60;99.90;;;;;;6043256;23;20011;-85
2023/01/14 10:42:22;;;;;;;8.00;3.10;;;6.60;99.90;;;;;;6017923;23;20047;-87
2023/01/14 10:44:48;;;;;;;11.00;3.40;;;6.70;99.90;;;;;;6044457;23;20015;-83
2023/01/14 10:47:16;;;;;;;7.13;3.00;;;6.70;99.90;;;;;;5994946;23;20103;-87
2023/01/14 10:49:45;;;;;;;8.23;2.85;;;6.80;99.90;;;;;;6017741;23;20022;-86
2023/01/14 10:52:19;;;;;;;11.23;3.65;;;6.70;99.90;;;;;;6017624;23;20512;-82
2023/01/14 10:55:10;;;;;;;14.43;3.93;;;6.70;99.90;;;;;;6018238;23;20090;-82
2023/01/14 10:57:45;;;;;;;14.25;4.18;;;6.80;99.90;;;;;;6018079;23;20054;-84
2023/01/14 11:00:34;;;;;;;9.93;3.17;;;6.80;99.90;;;;;;6043804;23;20442;-84
2023/01/14 11:03:01;;;;;;;12.70;3.85;;;6.80;99.90;;;;;;6001219;23;20023;-82
2023/01/14 11:05:29;;;;;;;6.38;2.85;;;6.80;99.90;;;;;;6018843;23;20078;-83
2023/01/14 11:08:13;;;;;;;8.70;3.70;;;6.80;99.90;;;;;;6018028;23;20064;-82
2023/01/14 11:10:40;;;;;;;8.25;2.85;;;6.80;99.90;;;;;;6018357;23;20018;-83
2023/01/14 11:13:26;;;;;;;12.32;3.40;;;6.90;99.90;;;;;;5995886;23;20291;-84
2023/01/14 11:15:52;;;;;;;9.43;3.22;;;6.80;99.90;;;;;;6043586;23;20063;-82
2023/01/14 11:18:18;;;;;;;7.50;3.15;;;6.90;99.90;;;;;;6018083;23;20018;-85
2023/01/14 11:20:59;;;;;;;9.27;3.60;;;6.80;99.90;;;;;;6043451;23;20097;-85
2023/01/14 11:23:31;;;;;;;12.25;4.28;;;6.90;99.90;;;;;;6044208;23;20012;-84
2023/01/14 11:26:05;;;;;;;8.20;2.90;;;6.90;99.90;;;;;;6043809;23;20050;-85
2023/01/14 11:28:31;;;;;;;11.23;3.40;;;7.00;99.90;;;;;;6043662;23;20334;-86
2023/01/14 11:30:57;;;;;;;13.23;3.80;;;7.00;99.90;;;;;;5995219;23;20011;-86
2023/01/14 11:33:25;;;;;;;10.93;3.95;;;6.90;99.90;;;;;;6043905;23;20039;-84
2023/01/14 11:35:54;;;;;;;7.53;3.05;;;7.00;99.90;;;;;;6042950;23;20472;-82
2023/01/14 11:38:22;;;;;;;11.88;3.17;;;7.00;99.90;;;;;;6041974;23;20035;-84
2023/01/14 11:44:02;;;;;;;7.97;2.92;;;7.00;99.90;;;;;;6040860;23;20027;-84
2023/01/14 11:46:28;;;;;;;8.25;3.33;;;7.10;99.90;;;;;;6017932;23;20011;-83
2023/01/14 11:49:17;;;;;;;7.82;2.78;;;7.10;99.90;;;;;;6017711;23;20015;-84
2023/01/14 11:52:03;;;;;;;9.63;3.60;;;7.10;99.90;;;;;;6017296;23;20026;-83
2023/01/14 11:54:40;;;;;;;7.53;2.72;;;7.20;99.90;;;;;;6020318;23;20018;-83
2023/01/14 11:57:16;;;;;;;9.93;3.25;;;7.20;99.90;;;;;;6024504;23;20446;-84
2023/01/14 11:59:43;;;;;;;8.02;2.88;;;7.20;99.90;;;;;;6059482;23;20023;-82
2023/01/14 12:02:23;;;;;;;14.68;3.88;;;7.20;99.90;;;;;;6063430;23;20041;-83
2023/01/14 12:05:15;;;;;;;4.22;2.10;;;7.30;99.90;;;;;;6019367;23;20024;-83
2023/01/14 12:07:52;;;;;;;8.13;2.65;;;7.30;99.90;;;;;;6043432;23;20467;-85
2023/01/14 12:10:35;;;;;;;10.98;3.05;;;7.30;99.90;;;;;;5994155;23;20018;-86
2023/01/14 12:16:49;;;;;;;8.48;2.08;;;7.40;99.90;;;;;;6041068;23;20033;-86
2023/01/14 12:19:43;;;;;;;8.00;2.17;;;7.40;99.90;;;;;;5993238;23;20326;-85
2023/01/14 12:22:15;;;;;;;8.20;2.90;;;7.40;99.90;;;;;;6016817;23;20022;-82
2023/01/14 12:25:09;;;;;;;8.02;3.00;;;7.50;99.90;;;;;;6016460;23;20055;-83
2023/01/14 12:27:48;;;;;;;5.45;1.80;;;7.50;99.90;;;;;;6041907;23;20021;-83
2023/01/14 12:30:33;;;;;;;4.55;2.20;;;7.50;99.90;;;;;;6016555;23;20098;-87
2023/01/14 12:33:08;;;;;;;6.18;2.08;;;7.60;99.90;;;;;;6016424;23;20453;-83
2023/01/14 12:36:08;;;;;;;7.93;2.20;;;7.70;99.90;;;;;;6017119;23;20019;-85
2023/01/14 12:47:33;;;;;;;4.78;1.52;;;7.90;99.90;;;;;;6041788;23;20402;-87
2023/01/14 12:49:59;;;;;;;3.97;1.25;;;8.00;99.90;;;;;;6042940;23;20011;-87
2023/01/14 12:52:33;;;;;;;3.70;1.65;;;8.10;99.90;;;;;;6016623;23;20043;-81
2023/01/14 12:55:00;;;;;;;2.42;1.30;;;8.10;99.90;;;;;;5993429;23;20019;-82
2023/01/14 12:57:26;;;;;;;4.65;1.42;;;8.20;99.90;;;;;;6016824;23;20026;-85
2023/01/14 13:00:02;;;;;;;3.53;1.50;;;8.20;99.90;;;;;;6017626;23;20501;-85
2023/01/14 13:02:38;;;;;;;4.30;2.35;;;8.30;99.90;;;;;;6016907;23;20019;-84
2023/01/14 13:05:28;;;;;;;5.57;1.40;;;8.40;99.90;;;;;;6041662;23;20308;-86
2023/01/14 13:07:58;;;;;;;4.53;1.73;;;8.40;99.90;;;;;;6017220;23;20442;-86
2023/01/14 13:10:34;;;;;;;3.60;1.40;;;8.50;99.90;;;;;;6042498;23;20077;-84
2023/01/14 13:13:01;;;;;;;3.67;1.33;;;8.50;99.90;;;;;;6045255;23;20015;-84
2023/01/14 13:15:37;;;;;;;4.32;1.52;;;8.50;99.90;;;;;;6018573;23;20027;-82
2023/01/14 13:18:05;;;;;;;4.10;1.43;;;8.50;99.90;;;;;;6044567;23;20019;-84
2023/01/14 13:20:37;;;;;;;5.80;2.17;;;8.60;99.90;;;;;;6018470;23;20291;-83
2023/01/14 13:23:10;;;;;;;5.30;1.83;;;8.60;99.90;;;;;;6044848;23;20050;-84
2023/01/14 13:25:43;;;;;;;4.47;1.52;;;8.70;99.90;;;;;;5995074;23;20087;-87
2023/01/14 13:28:12;;;;;;;5.47;1.70;;;8.70;99.90;;;;;;6044313;23;20086;-84
2023/01/14 13:30:45;;;;;;;3.83;1.60;;;8.70;99.90;;;;;;6044071;23;20086;-84
2023/01/14 13:33:19;;;;;;;4.97;1.88;;;8.70;99.90;;;;;;6019131;23;20060;-85
2023/01/14 13:36:08;;;;;;;4.97;1.83;;;8.70;99.90;;;;;;6044309;23;20019;-86
2023/01/14 13:38:40;;;;;;;3.88;1.77;;;8.80;99.90;;;;;;6019676;23;20107;-83
2023/01/14 13:41:06;;;;;;;2.53;1.48;;;8.80;99.90;;;;;;6044212;23;20120;-85
2023/01/14 13:43:37;;;;;;;2.20;0.85;;;8.90;99.90;;;;;;6020430;23;20015;-85
2023/01/14 13:46:06;;;;;;;2.67;1.35;;;9.00;99.90;;;;;;6045510;23;20019;-85
2023/01/14 13:48:38;;;;;;;2.85;1.40;;;9.00;99.90;;;;;;6020333;23;20018;-86
2023/01/14 13:51:27;;;;;;;4.63;1.58;;;9.00;99.90;;;;;;6019752;23;20023;-85
2023/01/14 13:54:08;;;;;;;4.30;1.27;;;9.10;99.90;;;;;;5995453;23;20484;-85
2023/01/14 13:56:43;;;;;;;1.90;1.17;;;9.10;99.90;;;;;;6044982;23;20051;-87
2023/01/14 13:59:26;;;;;;;2.20;1.30;;;9.10;99.90;;;;;;5996503;23;20072;-87
2023/01/14 14:01:52;;;;;;;4.90;1.77;;;9.20;99.90;;;;;;6018528;23;20046;-87
2023/01/14 14:04:55;;;;;;;3.17;1.58;;;9.20;99.90;;;;;;6044025;23;20015;-86
2023/01/14 14:07:45;;;;;;;1.63;1.05;;;9.20;99.90;;;;;;6044198;23;20015;-88
2023/01/14 14:10:22;;;;;;;2.85;1.60;;;9.20;99.90;;;;;;6018943;23;20022;-88
2023/01/14 14:15:48;;;;;;;3.10;1.60;;;9.30;99.90;;;;;;6043494;23;20026;-86
2023/01/14 14:18:35;;;;;;;4.35;1.50;;;9.30;99.90;;;;;;5995881;23;20018;-85
2023/01/14 14:21:13;;;;;;;3.42;1.63;;;9.30;99.90;;;;;;6042893;23;20015;-86
2023/01/14 14:23:52;;;;;;;2.42;1.40;;;9.30;99.90;;;;;;6018623;23;20019;-87
2023/01/14 14:26:21;;;;;;;3.20;1.50;;;9.30;99.90;;;;;;6018131;23;20027;-85
2023/01/14 14:28:51;;;;;;;2.58;1.23;;;9.40;99.90;;;;;;6043870;23;20015;-88
2023/01/14 14:31:22;;;;;;;2.97;1.50;;;9.40;99.90;;;;;;6019907;23;20019;-85
2023/01/14 14:34:00;;;;;;;3.90;1.60;;;9.40;99.90;;;;;;5996368;23;20015;-86
2023/01/14 14:36:27;;;;;;;3.38;1.65;;;9.50;99.90;;;;;;6020135;23;20017;-87
2023/01/14 14:38:57;;;;;;;2.70;1.40;;;9.40;99.90;;;;;;6044794;23;20007;-82
2023/01/14 14:41:26;;;;;;;3.17;1.50;;;9.40;99.90;;;;;;6044343;23;20017;-82
2023/01/14 14:44:15;;;;;;;3.67;1.70;;;9.50;99.90;;;;;;5995450;23;20066;-86
2023/01/14 14:46:53;;;;;;;3.67;2.00;;;9.50;99.90;;;;;;6020523;23;20027;-86
2023/01/14 14:49:23;;;;;;;3.65;1.50;;;9.50;99.90;;;;;;6019897;23;20045;-86
2023/01/14 14:51:53;;;;;;;3.92;1.90;;;9.50;99.90;;;;;;6019394;23;20323;-86
2023/01/14 14:54:30;;;;;;;4.32;2.00;;;9.60;99.90;;;;;;6019481;23;20011;-86
2023/01/14 14:57:11;;;;;;;3.05;2.10;;;9.50;99.90;;;;;;6044955;23;20442;-91
2023/01/14 14:59:38;;;;;;;3.63;1.85;;;9.60;99.90;;;;;;6018558;23;20022;-87
2023/01/14 15:02:23;;;;;;;2.40;1.35;;;9.60;99.90;;;;;;6044855;23;20042;-87
2023/01/14 15:04:51;;;;;;;3.03;1.85;;;9.60;99.90;;;;;;5995054;23;20015;-85
2023/01/14 15:07:18;;;;;;;5.05;1.95;;;9.70;99.90;;;;;;6018994;23;20078;-85
2023/01/14 15:09:46;;;;;;;4.63;1.90;;;9.60;99.90;;;;;;5995617;23;20026;-86
2023/01/14 15:12:19;;;;;;;2.95;1.80;;;9.70;99.90;;;;;;5996400;23;20306;-82
2023/01/14 15:14:58;;;;;;;3.30;2.20;;;9.70;99.90;;;;;;5995059;23;20020;-84
2023/01/14 15:17:24;;;;;;;2.55;1.73;;;9.70;99.90;;;;;;6043936;23;20098;-83
2023/01/14 15:19:52;;;;;;;2.65;1.45;;;9.70;99.90;;;;;;6018308;23;20030;-88
2023/01/14 15:22:19;;;;;;;3.95;1.92;;;9.70;99.90;;;;;;6044220;23;20019;-88
2023/01/14 15:24:51;;;;;;;2.60;1.67;;;9.80;99.90;;;;;;6018874;23;20094;-89
2023/01/14 15:27:21;;;;;;;3.08;1.85;;;9.80;99.90;;;;;;6044570;23;20379;-86
2023/01/14 15:30:22;;;;;;;4.57;2.38;;;9.80;99.90;;;;;;6043786;23;20045;-86
2023/01/14 15:32:48;;;;;;;3.47;1.90;;;9.80;99.90;;;;;;5960211;23;20381;-90
2023/01/14 15:35:29;;;;;;;2.85;1.92;;;9.90;99.90;;;;;;6043329;23;20043;-86
2023/01/14 15:38:06;;;;;;;4.72;2.38;;;9.90;99.90;;;;;;5995292;23;20112;-87
2023/01/14 15:40:43;;;;;;;5.07;2.10;;;9.90;99.90;;;;;;6044072;23;20022;-85
2023/01/14 15:43:29;;;;;;;3.47;2.25;;;10.00;99.90;;;;;;6042924;23;20363;-86
2023/01/14 15:46:04;;;;;;;5.25;1.77;;;9.90;99.90;;;;;;6019059;23;20039;-86
2023/01/14 15:48:30;;;;;;;;;;;10.00;99.90;;;;;;6044734;23;20015;-85
2023/01/14 15:51:00;;;;;;;;;;;10.00;99.90;;;;;;6018670;23;19992;-86
2023/01/14 15:53:31;;;;;;;3.70;2.30;;;10.00;99.90;;;;;;6019431;23;19921;-89
2023/01/14 15:56:03;;;;;;;3.95;2.15;;;10.00;99.90;;;;;;6019532;23;20026;-85
2023/01/14 15:58:31;;;;;;;3.53;2.45;;;10.00;99.90;;;;;;6044930;23;20011;-86
2023/01/14 16:01:01;;;;;;;3.47;2.15;;;10.00;99.90;;;;;;5995613;23;20022;-86
2023/01/14 16:03:40;;;;;;;4.13;2.70;;;10.10;99.90;;;;;;6020079;23;20482;-88
2023/01/14 16:06:39;;;;;;;3.00;2.10;;;10.10;99.90;;;;;;6019253;23;20019;-84
2023/01/14 16:09:16;;;;;;;3.72;2.20;;;10.10;99.90;;;;;;6034300;23;20022;-85
2023/01/14 16:11:53;;;;;;;3.85;2.60;;;10.10;99.90;;;;;;6021138;23;20012;-87
2023/01/14 16:14:27;;;;;;;4.70;2.55;;;10.10;99.90;;;;;;6046665;23;20047;-90
2023/01/14 16:16:52;;;;;;;4.72;2.70;;;10.10;99.90;;;;;;6046065;23;20046;-86
2023/01/14 16:19:18;;;;;;;3.72;2.30;;;10.10;99.90;;;;;;6043939;23;20011;-84
2023/01/14 16:21:44;;;;;;;4.57;2.97;;;10.20;99.90;;;;;;6017530;23;20020;-83
2023/01/14 16:24:09;;;;;;;3.42;2.38;;;10.20;99.90;;;;;;6016708;23;20071;-84
2023/01/14 16:26:36;;;;;;;3.75;2.70;;;10.20;99.90;;;;;;6042954;23;20118;-84
2023/01/14 16:29:03;;;;;;;3.17;2.22;;;10.20;99.90;;;;;;6018337;23;20022;-83
2023/01/14 16:31:28;;;;;;;4.97;3.08;;;10.20;99.90;;;;;;6041765;23;20038;-81
2023/01/14 16:34:06;;;;;;;3.72;2.63;;;10.20;99.90;;;;;;6043482;23;20022;-87
2023/01/14 16:36:32;;;;;;;4.43;2.90;;;10.20;99.90;;;;;;6043443;23;20020;-79
2023/01/14 16:38:58;;;;;;;3.90;2.45;;;10.20;99.90;;;;;;6043892;23;20019;-88
2023/01/14 16:41:24;;;;;;;3.85;2.67;;;10.20;99.90;;;;;;6020405;23;20015;-90
2023/01/14 16:43:50;;;;;;;4.03;2.75;;;10.20;99.90;;;;;;6018913;23;20075;-85
2023/01/14 16:46:16;;;;;;;3.03;1.67;;;10.20;99.90;;;;;;6018122;23;20094;-84
2023/01/14 16:48:43;;;;;;;5.18;3.15;;;10.30;99.90;;;;;;6043954;23;20057;-84
2023/01/14 16:51:16;;;;;;;4.28;2.78;;;10.30;99.90;;;;;;6019031;23;20047;-80
2023/01/14 16:53:42;;;;;;;4.68;2.90;;;10.30;99.90;;;;;;6020501;23;20047;-81
2023/01/14 16:56:08;;;;;;;4.82;3.17;;;10.30;99.90;;;;;;6020452;23;20087;-87
2023/01/14 16:58:34;;;;;;;3.63;2.42;;;10.30;99.90;;;;;;6044604;23;20338;-85
2023/01/14 17:01:05;;;;;;;4.97;3.03;;;10.30;99.90;;;;;;6018472;23;20070;-83
2023/01/14 17:03:32;;;;;;;4.25;2.92;;;10.30;99.90;;;;;;6017985;23;20023;-87
2023/01/14 17:05:58;;;;;;;3.78;2.30;;;10.30;99.90;;;;;;6044285;23;20018;-89
2023/01/14 17:08:37;;;;;;;3.63;2.17;;;10.30;99.90;;;;;;6044776;23;20011;-86
2023/01/14 17:12:37;;;;;;;3.65;2.00;;;10.40;99.90;;;;;;5901675;23;20024;-88
2023/01/14 17:13:51;;;;;;;3.50;2.30;;;10.30;99.90;;;;;;6018831;23;20042;-88
2023/01/14 17:16:17;;;;;;;2.75;1.85;;;10.30;99.90;;;;;;6044717;23;20015;-87
2023/01/14 17:18:43;;;;;;;4.93;2.47;;;10.40;99.90;;;;;;6047377;23;20019;-88
2023/01/14 17:21:11;;;;;;;3.03;2.17;;;10.40;99.90;;;;;;6019999;23;20402;-86
2023/01/14 17:26:45;;;;;;;3.22;1.73;;;10.40;99.90;;;;;;6045196;23;20082;-91
2023/01/14 17:29:13;;;;;;;3.20;1.88;;;10.40;99.90;;;;;;6021428;23;20023;-82
2023/01/14 17:31:38;;;;;;;2.58;1.50;;;10.40;99.90;;;;;;6045693;23;20007;-87
2023/01/14 17:34:07;;;;;;;2.67;1.40;;;10.40;99.90;;;;;;6045896;23;20330;-90
2023/01/14 17:36:33;;;;;;;2.38;1.58;;;10.40;99.90;;;;;;5995747;23;20023;-83
2023/01/14 17:38:59;;;;;;;2.38;1.63;;;10.50;99.90;;;;;;6043988;23;20508;-84
2023/01/14 17:44:09;;;;;;;2.85;1.42;;;10.50;99.90;;;;;;6044042;23;20027;-86
2023/01/14 17:46:35;;;;;;;5.60;1.80;;;10.50;99.90;;;;;;5995191;23;20015;-87
2023/01/14 17:49:01;;;;;;;6.50;2.25;;;10.50;99.90;;;;;;5995589;23;20116;-87
2023/01/14 17:51:32;;;;;;;4.78;2.53;;;10.50;99.90;;;;;;6045020;23;20018;-88
2023/01/14 17:54:01;;;;;;;5.80;2.13;;;10.50;99.90;;;;;;6018309;23;20011;-82
2023/01/14 17:56:27;;;;;;;6.80;2.67;;;10.50;99.90;;;;;;6042722;23;20015;-84
2023/01/14 17:58:53;;;;;;;4.50;1.85;;;10.50;99.90;;;;;;6017147;23;20413;-84
2023/01/14 18:01:19;;;;;;;8.35;2.58;;;10.40;99.90;;;;;;5995465;23;20070;-84
2023/01/14 18:03:53;;;;;;;6.15;2.40;;;10.40;99.90;;;;;;6017883;23;20019;-84
2023/01/14 18:06:19;;;;;;;13.50;4.22;;;10.30;99.90;;;;;;6018236;23;20015;-84
2023/01/14 18:08:45;;;;;;;10.63;2.72;;;10.30;99.90;;;;;;6043075;23;20007;-83
2023/01/14 18:11:11;;;;;;;13.80;3.35;;;10.20;99.90;;;;;;6017704;23;20076;-83
2023/01/14 18:13:37;;;;;;;8.32;2.03;;;10.10;99.90;;;;;;6042750;23;20307;-84
2023/01/14 18:16:03;;;;;;;18.05;4.95;;;10.20;99.90;;;;;;6017904;23;20402;-84
2023/01/14 18:18:29;;;;;;;25.48;6.05;;;10.10;99.90;;;;;;6044142;23;20410;-83
2023/01/14 18:21:02;;;;;;;19.88;4.95;;;10.00;99.90;;;;;;6018600;23;20162;-82
2023/01/14 18:23:28;;;;;;;19.85;4.25;;;10.00;99.90;;;;;;6043752;23;20191;-84
2023/01/14 18:25:54;;;;;;;18.23;4.30;;;9.90;99.90;;;;;;6043689;23;20016;-84
2023/01/14 18:28:19;;;;;;;17.65;3.58;;;9.90;99.90;;;;;;6018707;23;20027;-84
2023/01/14 18:30:45;;;;;;;13.30;4.05;;;9.90;99.90;;;;;;6044302;23;20011;-84
2023/01/14 18:33:11;;;;;;;18.77;3.80;;;9.90;99.90;;;;;;5995524;23;20401;-85
2023/01/14 18:35:36;;;;;;;24.90;4.47;;;9.90;99.90;;;;;;6019818;23;20022;-83
2023/01/14 18:38:05;;;;;;;19.80;3.85;;;9.80;99.90;;;;;;6044324;23;20140;-90
2023/01/14 18:40:53;;;;;;;17.85;3.67;;;9.80;99.90;;;;;;6042687;23;20015;-86
2023/01/14 18:43:22;;;;;;;37.70;10.15;;;9.80;99.90;;;;;;5901998;24;20433;-82
2023/01/14 18:45:47;;;;;;;22.63;4.95;;;9.80;99.90;;;;;;5877486;24;20028;-85
2023/01/14 18:48:19;;;;;;;20.40;4.10;;;9.70;99.90;;;;;;5902764;24;20006;-85
2023/01/14 18:50:45;;;;;;;29.08;6.28;;;9.70;99.90;;;;;;5878104;24;20026;-81
2023/01/14 18:53:10;;;;;;;16.23;4.22;;;9.70;99.90;;;;;;5899935;24;20017;-85
2023/01/14 18:55:36;;;;;;;11.05;3.00;;;9.70;99.90;;;;;;5896799;24;20022;-82
2023/01/14 18:58:01;;;;;;;9.57;2.13;;;9.50;99.90;;;;;;5896493;24;20033;-82
2023/01/14 19:00:27;;;;;;;8.07;2.40;;;9.20;99.90;;;;;;5897914;24;20052;-83
2023/01/14 19:02:53;;;;;;;8.52;2.70;;;8.80;99.90;;;;;;5898098;24;20520;-81
2023/01/14 19:05:18;;;;;;;8.90;2.65;;;8.50;99.90;;;;;;5897470;24;20360;-83